Terminal Aerodrome Forecast
Issued by NWS

Home | Current Version | Previous Version | Graphics & Text | Print | Product List | Glossary On
Versions: 1 2 3 4 5 6 7 8 9 10 11 12 13 14 15 16 17 18 19 20 21
000
FTUS43 KGRB 260700 AAA
TAFAUW
TAF AMD
KAUW 260734Z 2608/2706 10003KT 2SM BR SCT015 BKN045
     FM261100 VRB03KT 3SM BR OVC008
     FM270200 02004KT 2SM -SN OVC008=

USA.gov is the U.S. government's official web portal to all federal, state and local government web resources and services.